Schellville, California
Current Conditions -  °F | °C
As of 8:35 AM on Wednesday 22 Oct 2014 (Local Time) from KO69 Reporting Station
Clear Clear  
Wind Chill: 50°   Ceiling: Unl
Heat Index: 50°   Visibility: 9mi
Dew Point: 48°   Wind: 6mph
Humidity: 94%   Direction: 290°WNW
Pressure: 30.09"   Gusts: NA
Location:  38.257°N, 122.459°W
Report Text: KO69 221535Z AUTO 29005KT 9SM CLR 10/09 A3009 RMK AO1
Loading
Personal Weather Stations






























Interactive Weather Map
Tropical Storm Tracking
New forecast layout! Learn more

10-Day Weather Forecast

Advertisements
Track Severe Weather on mobile